sensor_id;sensor_type;location;lat;lon;timestamp;temperature;humidity
64062;DHT22;50308;47.438;-1.528;2023-03-12T00:00:33;13.10;91.50
64062;DHT22;50308;47.438;-1.528;2023-03-12T00:02:59;13.10;91.40
64062;DHT22;50308;47.438;-1.528;2023-03-12T00:05:24;13.00;91.10
64062;DHT22;50308;47.438;-1.528;2023-03-12T00:07:50;13.10;91.30
64062;DHT22;50308;47.438;-1.528;2023-03-12T00:10:16;13.10;91.30
64062;DHT22;50308;47.438;-1.528;2023-03-12T00:12:41;13.00;91.10
64062;DHT22;50308;47.438;-1.528;2023-03-12T00:15:07;13.10;91.40
64062;DHT22;50308;47.438;-1.528;2023-03-12T00:17:33;13.10;91.20
64062;DHT22;50308;47.438;-1.528;2023-03-12T00:19:59;13.00;91.20
64062;DHT22;50308;47.438;-1.528;2023-03-12T00:22:24;13.00;91.00
64062;DHT22;50308;47.438;-1.528;2023-03-12T00:24:51;13.00;91.00
64062;DHT22;50308;47.438;-1.528;2023-03-12T00:27:16;13.00;91.00
64062;DHT22;50308;47.438;-1.528;2023-03-12T00:29:42;13.00;90.90
64062;DHT22;50308;47.438;-1.528;2023-03-12T00:32:08;13.00;91.10
64062;DHT22;50308;47.438;-1.528;2023-03-12T00:34:33;13.00;91.00
64062;DHT22;50308;47.438;-1.528;2023-03-12T00:36:59;13.00;91.40
64062;DHT22;50308;47.438;-1.528;2023-03-12T00:39:24;13.00;90.80
64062;DHT22;50308;47.438;-1.528;2023-03-12T00:41:50;13.00;91.10
64062;DHT22;50308;47.438;-1.528;2023-03-12T00:44:15;13.00;91.00
64062;DHT22;50308;47.438;-1.528;2023-03-12T00:46:41;13.00;90.80
64062;DHT22;50308;47.438;-1.528;2023-03-12T00:49:07;13.00;90.80
64062;DHT22;50308;47.438;-1.528;2023-03-12T00:51:32;13.00;90.70
64062;DHT22;50308;47.438;-1.528;2023-03-12T00:53:58;13.00;90.60
64062;DHT22;50308;47.438;-1.528;2023-03-12T00:56:23;13.00;90.90
64062;DHT22;50308;47.438;-1.528;2023-03-12T00:58:49;12.90;90.90
64062;DHT22;50308;47.438;-1.528;2023-03-12T01:01:15;12.90;90.60
64062;DHT22;50308;47.438;-1.528;2023-03-12T01:03:40;12.90;90.50
64062;DHT22;50308;47.438;-1.528;2023-03-12T01:06:06;12.90;90.90
64062;DHT22;50308;47.438;-1.528;2023-03-12T01:08:31;12.90;90.50
64062;DHT22;50308;47.438;-1.528;2023-03-12T01:10:57;12.80;90.50
64062;DHT22;50308;47.438;-1.528;2023-03-12T01:13:23;12.90;90.70
64062;DHT22;50308;47.438;-1.528;2023-03-12T01:15:48;12.80;90.50
64062;DHT22;50308;47.438;-1.528;2023-03-12T01:18:14;12.80;90.50
64062;DHT22;50308;47.438;-1.528;2023-03-12T01:20:39;12.80;90.60
64062;DHT22;50308;47.438;-1.528;2023-03-12T01:23:05;12.80;90.60
64062;DHT22;50308;47.438;-1.528;2023-03-12T01:25:31;12.70;90.70
64062;DHT22;50308;47.438;-1.528;2023-03-12T01:27:58;12.70;90.90
64062;DHT22;50308;47.438;-1.528;2023-03-12T01:30:23;12.70;90.70
64062;DHT22;50308;47.438;-1.528;2023-03-12T01:32:50;12.70;90.60
64062;DHT22;50308;47.438;-1.528;2023-03-12T01:35:16;12.70;90.90
64062;DHT22;50308;47.438;-1.528;2023-03-12T01:37:41;12.70;90.70
64062;DHT22;50308;47.438;-1.528;2023-03-12T01:40:07;12.70;90.70
64062;DHT22;50308;47.438;-1.528;2023-03-12T01:42:33;12.70;91.00
64062;DHT22;50308;47.438;-1.528;2023-03-12T01:44:59;12.70;91.10
64062;DHT22;50308;47.438;-1.528;2023-03-12T01:47:26;12.70;91.30
64062;DHT22;50308;47.438;-1.528;2023-03-12T01:49:53;12.70;91.00
64062;DHT22;50308;47.438;-1.528;2023-03-12T01:52:24;12.70;91.10
64062;DHT22;50308;47.438;-1.528;2023-03-12T01:55:00;12.70;91.10
64062;DHT22;50308;47.438;-1.528;2023-03-12T01:57:37;12.70;91.30
64062;DHT22;50308;47.438;-1.528;2023-03-12T02:00:08;12.70;91.20
64062;DHT22;50308;47.438;-1.528;2023-03-12T02:02:36;12.70;91.30
64062;DHT22;50308;47.438;-1.528;2023-03-12T02:07:30;12.70;91.30
64062;DHT22;50308;47.438;-1.528;2023-03-12T02:09:57;12.70;91.80
64062;DHT22;50308;47.438;-1.528;2023-03-12T02:12:23;12.70;91.60
64062;DHT22;50308;47.438;-1.528;2023-03-12T02:14:48;12.70;91.70
64062;DHT22;50308;47.438;-1.528;2023-03-12T02:17:14;12.70;91.30
64062;DHT22;50308;47.438;-1.528;2023-03-12T02:22:08;12.70;90.80
64062;DHT22;50308;47.438;-1.528;2023-03-12T02:24:36;12.70;91.40
64062;DHT22;50308;47.438;-1.528;2023-03-12T02:27:03;12.70;91.30
64062;DHT22;50308;47.438;-1.528;2023-03-12T02:29:30;12.70;90.90
64062;DHT22;50308;47.438;-1.528;2023-03-12T02:31:57;12.70;91.00
64062;DHT22;50308;47.438;-1.528;2023-03-12T02:34:23;12.70;91.10
64062;DHT22;50308;47.438;-1.528;2023-03-12T02:36:49;12.70;91.40
64062;DHT22;50308;47.438;-1.528;2023-03-12T02:39:15;12.70;90.60
64062;DHT22;50308;47.438;-1.528;2023-03-12T02:41:41;12.70;90.70
64062;DHT22;50308;47.438;-1.528;2023-03-12T02:44:13;12.70;90.70
64062;DHT22;50308;47.438;-1.528;2023-03-12T02:46:40;12.70;90.40
64062;DHT22;50308;47.438;-1.528;2023-03-12T02:49:06;12.70;90.50
64062;DHT22;50308;47.438;-1.528;2023-03-12T02:51:33;12.70;90.60
64062;DHT22;50308;47.438;-1.528;2023-03-12T02:53:59;12.70;90.50
64062;DHT22;50308;47.438;-1.528;2023-03-12T02:56:25;12.60;90.50
64062;DHT22;50308;47.438;-1.528;2023-03-12T02:58:51;12.60;90.30
64062;DHT22;50308;47.438;-1.528;2023-03-12T03:01:17;12.50;90.20
64062;DHT22;50308;47.438;-1.528;2023-03-12T03:03:43;12.50;90.20
64062;DHT22;50308;47.438;-1.528;2023-03-12T03:06:09;12.50;90.10
64062;DHT22;50308;47.438;-1.528;2023-03-12T03:08:34;12.40;90.10
64062;DHT22;50308;47.438;-1.528;2023-03-12T03:11:00;12.30;90.10
64062;DHT22;50308;47.438;-1.528;2023-03-12T03:13:27;12.30;90.10
64062;DHT22;50308;47.438;-1.528;2023-03-12T03:15:53;12.30;90.00
64062;DHT22;50308;47.438;-1.528;2023-03-12T03:18:19;12.20;89.70
64062;DHT22;50308;47.438;-1.528;2023-03-12T03:20:44;12.10;89.70
64062;DHT22;50308;47.438;-1.528;2023-03-12T03:23:10;12.10;89.40
64062;DHT22;50308;47.438;-1.528;2023-03-12T03:25:35;12.10;90.00
64062;DHT22;50308;47.438;-1.528;2023-03-12T03:28:01;12.10;89.40
64062;DHT22;50308;47.438;-1.528;2023-03-12T03:30:26;12.00;89.20
64062;DHT22;50308;47.438;-1.528;2023-03-12T03:32:52;12.00;89.30
64062;DHT22;50308;47.438;-1.528;2023-03-12T03:35:17;11.90;89.40
64062;DHT22;50308;47.438;-1.528;2023-03-12T03:37:43;11.90;89.30
64062;DHT22;50308;47.438;-1.528;2023-03-12T03:40:09;11.90;89.20
64062;DHT22;50308;47.438;-1.528;2023-03-12T03:42:36;11.90;89.70
64062;DHT22;50308;47.438;-1.528;2023-03-12T03:45:03;12.00;90.20
64062;DHT22;50308;47.438;-1.528;2023-03-12T03:47:29;12.00;90.50
64062;DHT22;50308;47.438;-1.528;2023-03-12T03:49:54;12.10;90.40
64062;DHT22;50308;47.438;-1.528;2023-03-12T03:52:20;12.20;90.30
64062;DHT22;50308;47.438;-1.528;2023-03-12T03:54:45;12.20;90.30
64062;DHT22;50308;47.438;-1.528;2023-03-12T03:57:11;12.30;90.20
64062;DHT22;50308;47.438;-1.528;2023-03-12T03:59:36;12.30;90.40
64062;DHT22;50308;47.438;-1.528;2023-03-12T04:02:02;12.30;90.50
64062;DHT22;50308;47.438;-1.528;2023-03-12T04:04:28;12.30;90.40
64062;DHT22;50308;47.438;-1.528;2023-03-12T04:06:53;12.40;90.50
64062;DHT22;50308;47.438;-1.528;2023-03-12T04:09:19;12.40;90.40
64062;DHT22;50308;47.438;-1.528;2023-03-12T04:11:44;12.40;90.30
64062;DHT22;50308;47.438;-1.528;2023-03-12T04:14:10;12.40;90.30
64062;DHT22;50308;47.438;-1.528;2023-03-12T04:16:35;12.40;90.40
64062;DHT22;50308;47.438;-1.528;2023-03-12T04:19:01;12.40;90.40
64062;DHT22;50308;47.438;-1.528;2023-03-12T04:21:27;12.50;90.30
64062;DHT22;50308;47.438;-1.528;2023-03-12T04:23:52;12.50;90.40
64062;DHT22;50308;47.438;-1.528;2023-03-12T04:26:18;12.50;90.10
64062;DHT22;50308;47.438;-1.528;2023-03-12T04:28:43;12.50;90.40
64062;DHT22;50308;47.438;-1.528;2023-03-12T04:31:09;12.50;90.10
64062;DHT22;50308;47.438;-1.528;2023-03-12T04:33:36;12.50;90.00
64062;DHT22;50308;47.438;-1.528;2023-03-12T04:36:02;12.50;90.00
64062;DHT22;50308;47.438;-1.528;2023-03-12T04:38:28;12.50;89.90
64062;DHT22;50308;47.438;-1.528;2023-03-12T04:41:05;12.50;90.00
64062;DHT22;50308;47.438;-1.528;2023-03-12T04:43:32;12.50;90.30
64062;DHT22;50308;47.438;-1.528;2023-03-12T04:45:58;12.50;90.30
64062;DHT22;50308;47.438;-1.528;2023-03-12T04:48:24;12.60;90.20
64062;DHT22;50308;47.438;-1.528;2023-03-12T04:50:50;12.50;90.30
64062;DHT22;50308;47.438;-1.528;2023-03-12T04:53:15;12.50;90.30
64062;DHT22;50308;47.438;-1.528;2023-03-12T04:55:41;12.60;90.00
64062;DHT22;50308;47.438;-1.528;2023-03-12T04:58:06;12.50;90.30
64062;DHT22;50308;47.438;-1.528;2023-03-12T05:00:32;12.50;89.90
64062;DHT22;50308;47.438;-1.528;2023-03-12T05:02:58;12.50;90.40
64062;DHT22;50308;47.438;-1.528;2023-03-12T05:05:23;12.50;90.30
64062;DHT22;50308;47.438;-1.528;2023-03-12T05:07:49;12.60;90.30
64062;DHT22;50308;47.438;-1.528;2023-03-12T05:10:14;12.60;89.90
64062;DHT22;50308;47.438;-1.528;2023-03-12T05:12:40;12.50;90.40
64062;DHT22;50308;47.438;-1.528;2023-03-12T05:15:06;12.50;90.30
64062;DHT22;50308;47.438;-1.528;2023-03-12T05:17:31;12.50;90.50
64062;DHT22;50308;47.438;-1.528;2023-03-12T05:19:57;12.50;90.10
64062;DHT22;50308;47.438;-1.528;2023-03-12T05:22:22;12.50;90.30
64062;DHT22;50308;47.438;-1.528;2023-03-12T05:24:48;12.40;90.20
64062;DHT22;50308;47.438;-1.528;2023-03-12T05:27:13;12.40;90.30
64062;DHT22;50308;47.438;-1.528;2023-03-12T05:29:39;12.40;90.40
64062;DHT22;50308;47.438;-1.528;2023-03-12T05:32:04;12.40;90.30
64062;DHT22;50308;47.438;-1.528;2023-03-12T05:34:31;12.40;90.20
64062;DHT22;50308;47.438;-1.528;2023-03-12T05:36:57;12.40;90.20
64062;DHT22;50308;47.438;-1.528;2023-03-12T05:39:23;12.40;90.10
64062;DHT22;50308;47.438;-1.528;2023-03-12T05:41:49;12.40;90.10
64062;DHT22;50308;47.438;-1.528;2023-03-12T05:44:14;12.30;90.00
64062;DHT22;50308;47.438;-1.528;2023-03-12T05:46:41;12.20;89.80
64062;DHT22;50308;47.438;-1.528;2023-03-12T05:49:07;12.10;89.90
64062;DHT22;50308;47.438;-1.528;2023-03-12T05:51:32;12.00;90.00
64062;DHT22;50308;47.438;-1.528;2023-03-12T05:53:58;12.00;89.70
64062;DHT22;50308;47.438;-1.528;2023-03-12T05:56:24;12.00;90.00
64062;DHT22;50308;47.438;-1.528;2023-03-12T05:58:49;12.00;90.00
64062;DHT22;50308;47.438;-1.528;2023-03-12T06:01:17;12.00;90.20
64062;DHT22;50308;47.438;-1.528;2023-03-12T06:03:42;12.00;90.10
64062;DHT22;50308;47.438;-1.528;2023-03-12T06:06:08;12.10;90.20
64062;DHT22;50308;47.438;-1.528;2023-03-12T06:08:34;12.10;90.20
64062;DHT22;50308;47.438;-1.528;2023-03-12T06:10:59;12.20;90.20
64062;DHT22;50308;47.438;-1.528;2023-03-12T06:13:25;12.20;90.10
64062;DHT22;50308;47.438;-1.528;2023-03-12T06:15:52;12.30;90.10
64062;DHT22;50308;47.438;-1.528;2023-03-12T06:18:18;12.30;90.10
64062;DHT22;50308;47.438;-1.528;2023-03-12T06:20:43;12.30;90.20
64062;DHT22;50308;47.438;-1.528;2023-03-12T06:23:09;12.30;90.10
64062;DHT22;50308;47.438;-1.528;2023-03-12T06:25:34;12.30;90.20
64062;DHT22;50308;47.438;-1.528;2023-03-12T06:28:00;12.30;90.20
64062;DHT22;50308;47.438;-1.528;2023-03-12T06:30:25;12.30;90.00
64062;DHT22;50308;47.438;-1.528;2023-03-12T06:32:52;12.30;90.20
64062;DHT22;50308;47.438;-1.528;2023-03-12T06:35:17;12.40;90.20
64062;DHT22;50308;47.438;-1.528;2023-03-12T06:37:43;12.40;90.20
64062;DHT22;50308;47.438;-1.528;2023-03-12T06:40:09;12.40;90.20
64062;DHT22;50308;47.438;-1.528;2023-03-12T06:42:35;12.40;90.20
64062;DHT22;50308;47.438;-1.528;2023-03-12T06:45:01;12.40;90.10
64062;DHT22;50308;47.438;-1.528;2023-03-12T06:47:26;12.40;90.10
64062;DHT22;50308;47.438;-1.528;2023-03-12T06:49:52;12.40;90.20
64062;DHT22;50308;47.438;-1.528;2023-03-12T06:52:17;12.40;90.20
64062;DHT22;50308;47.438;-1.528;2023-03-12T06:54:43;12.40;90.20
64062;DHT22;50308;47.438;-1.528;2023-03-12T06:57:08;12.40;89.60
64062;DHT22;50308;47.438;-1.528;2023-03-12T06:59:34;12.40;90.10
64062;DHT22;50308;47.438;-1.528;2023-03-12T07:01:59;12.40;89.60
64062;DHT22;50308;47.438;-1.528;2023-03-12T07:04:26;12.30;90.30
64062;DHT22;50308;47.438;-1.528;2023-03-12T07:06:51;12.30;90.40
64062;DHT22;50308;47.438;-1.528;2023-03-12T07:09:17;12.20;90.20
64062;DHT22;50308;47.438;-1.528;2023-03-12T07:11:43;12.20;90.40
64062;DHT22;50308;47.438;-1.528;2023-03-12T07:14:08;12.20;90.30
64062;DHT22;50308;47.438;-1.528;2023-03-12T07:16:34;12.20;90.20
64062;DHT22;50308;47.438;-1.528;2023-03-12T07:19:00;12.30;90.40
64062;DHT22;50308;47.438;-1.528;2023-03-12T07:21:26;12.30;90.20
64062;DHT22;50308;47.438;-1.528;2023-03-12T07:23:51;12.30;90.20
64062;DHT22;50308;47.438;-1.528;2023-03-12T07:26:17;12.30;90.00
64062;DHT22;50308;47.438;-1.528;2023-03-12T07:28:43;12.40;90.20
64062;DHT22;50308;47.438;-1.528;2023-03-12T07:31:08;12.40;90.30
64062;DHT22;50308;47.438;-1.528;2023-03-12T07:33:34;12.40;90.10
64062;DHT22;50308;47.438;-1.528;2023-03-12T07:36:00;12.40;90.10
64062;DHT22;50308;47.438;-1.528;2023-03-12T07:38:26;12.40;90.30
64062;DHT22;50308;47.438;-1.528;2023-03-12T07:40:55;12.40;90.10
64062;DHT22;50308;47.438;-1.528;2023-03-12T07:43:21;12.40;90.00
64062;DHT22;50308;47.438;-1.528;2023-03-12T07:45:47;12.40;90.00
64062;DHT22;50308;47.438;-1.528;2023-03-12T07:48:13;12.40;90.30
64062;DHT22;50308;47.438;-1.528;2023-03-12T07:50:39;12.40;90.10
64062;DHT22;50308;47.438;-1.528;2023-03-12T07:53:04;12.40;89.60
64062;DHT22;50308;47.438;-1.528;2023-03-12T07:55:31;12.50;89.60
64062;DHT22;50308;47.438;-1.528;2023-03-12T07:57:56;12.50;90.10
64062;DHT22;50308;47.438;-1.528;2023-03-12T08:00:23;12.50;90.20
64062;DHT22;50308;47.438;-1.528;2023-03-12T08:02:49;12.50;90.70
64062;DHT22;50308;47.438;-1.528;2023-03-12T08:05:14;12.50;90.60
64062;DHT22;50308;47.438;-1.528;2023-03-12T08:07:40;12.60;90.00
64062;DHT22;50308;47.438;-1.528;2023-03-12T08:10:06;12.60;89.90
64062;DHT22;50308;47.438;-1.528;2023-03-12T08:12:32;12.60;89.50
64062;DHT22;50308;47.438;-1.528;2023-03-12T08:14:58;12.60;89.50
64062;DHT22;50308;47.438;-1.528;2023-03-12T08:17:24;12.60;89.10
64062;DHT22;50308;47.438;-1.528;2023-03-12T08:19:49;12.70;89.30
64062;DHT22;50308;47.438;-1.528;2023-03-12T08:22:15;12.70;90.40
64062;DHT22;50308;47.438;-1.528;2023-03-12T08:24:41;12.70;89.70
64062;DHT22;50308;47.438;-1.528;2023-03-12T08:27:07;12.70;89.50
64062;DHT22;50308;47.438;-1.528;2023-03-12T08:29:32;12.70;89.60
64062;DHT22;50308;47.438;-1.528;2023-03-12T08:31:58;12.70;89.10
64062;DHT22;50308;47.438;-1.528;2023-03-12T08:34:24;12.70;88.80
64062;DHT22;50308;47.438;-1.528;2023-03-12T08:36:50;12.70;89.40
64062;DHT22;50308;47.438;-1.528;2023-03-12T08:39:15;12.80;89.00
64062;DHT22;50308;47.438;-1.528;2023-03-12T08:41:41;12.70;89.10
64062;DHT22;50308;47.438;-1.528;2023-03-12T08:44:06;12.70;88.40
64062;DHT22;50308;47.438;-1.528;2023-03-12T08:46:32;12.80;88.30
64062;DHT22;50308;47.438;-1.528;2023-03-12T08:48:57;12.80;88.10
64062;DHT22;50308;47.438;-1.528;2023-03-12T08:51:23;12.80;89.00
64062;DHT22;50308;47.438;-1.528;2023-03-12T08:53:48;12.80;88.70
64062;DHT22;50308;47.438;-1.528;2023-03-12T08:56:14;12.80;87.60
64062;DHT22;50308;47.438;-1.528;2023-03-12T08:58:39;12.80;88.40
64062;DHT22;50308;47.438;-1.528;2023-03-12T09:01:09;12.80;88.30
64062;DHT22;50308;47.438;-1.528;2023-03-12T09:03:35;12.80;87.60
64062;DHT22;50308;47.438;-1.528;2023-03-12T09:06:04;12.80;88.50
64062;DHT22;50308;47.438;-1.528;2023-03-12T09:08:30;12.80;88.10
64062;DHT22;50308;47.438;-1.528;2023-03-12T09:10:58;12.80;87.90
64062;DHT22;50308;47.438;-1.528;2023-03-12T09:13:24;12.80;87.80
64062;DHT22;50308;47.438;-1.528;2023-03-12T09:15:49;12.80;88.80
64062;DHT22;50308;47.438;-1.528;2023-03-12T09:18:15;12.80;88.10
64062;DHT22;50308;47.438;-1.528;2023-03-12T09:20:41;12.90;88.20
64062;DHT22;50308;47.438;-1.528;2023-03-12T09:23:06;12.90;87.60
64062;DHT22;50308;47.438;-1.528;2023-03-12T09:25:32;12.90;88.40
64062;DHT22;50308;47.438;-1.528;2023-03-12T09:27:57;12.90;87.50
64062;DHT22;50308;47.438;-1.528;2023-03-12T09:30:23;12.90;88.50
64062;DHT22;50308;47.438;-1.528;2023-03-12T09:32:50;12.90;87.70
64062;DHT22;50308;47.438;-1.528;2023-03-12T09:35:16;12.90;87.30
64062;DHT22;50308;47.438;-1.528;2023-03-12T09:37:41;12.90;87.80
64062;DHT22;50308;47.438;-1.528;2023-03-12T09:40:07;12.90;87.20
64062;DHT22;50308;47.438;-1.528;2023-03-12T09:42:40;12.90;88.10
64062;DHT22;50308;47.438;-1.528;2023-03-12T09:45:06;12.90;87.10
64062;DHT22;50308;47.438;-1.528;2023-03-12T09:47:34;12.90;87.50
64062;DHT22;50308;47.438;-1.528;2023-03-12T09:50:43;13.00;88.10
64062;DHT22;50308;47.438;-1.528;2023-03-12T09:53:00;13.00;88.50
64062;DHT22;50308;47.438;-1.528;2023-03-12T09:55:26;13.00;87.50
64062;DHT22;50308;47.438;-1.528;2023-03-12T09:57:52;13.00;87.90
64062;DHT22;50308;47.438;-1.528;2023-03-12T10:00:22;13.00;87.00
64062;DHT22;50308;47.438;-1.528;2023-03-12T10:05:25;13.00;87.70
64062;DHT22;50308;47.438;-1.528;2023-03-12T10:08:00;13.00;88.70
64062;DHT22;50308;47.438;-1.528;2023-03-12T10:10:31;13.00;88.00
64062;DHT22;50308;47.438;-1.528;2023-03-12T10:15:31;13.00;88.30
64062;DHT22;50308;47.438;-1.528;2023-03-12T10:20:48;13.00;87.10
64062;DHT22;50308;47.438;-1.528;2023-03-12T10:28:28;13.10;87.90
64062;DHT22;50308;47.438;-1.528;2023-03-12T10:30:56;13.00;87.30
64062;DHT22;50308;47.438;-1.528;2023-03-12T10:33:24;13.10;88.30
64062;DHT22;50308;47.438;-1.528;2023-03-12T10:35:54;13.10;88.50
64062;DHT22;50308;47.438;-1.528;2023-03-12T12:43:22;13.40;87.10
64062;DHT22;50308;47.438;-1.528;2023-03-12T12:45:49;13.40;87.20
64062;DHT22;50308;47.438;-1.528;2023-03-12T12:48:17;13.40;87.50
64062;DHT22;50308;47.438;-1.528;2023-03-12T12:50:43;13.40;87.80
64062;DHT22;50308;47.438;-1.528;2023-03-12T12:55:39;13.40;87.60
64062;DHT22;50308;47.438;-1.528;2023-03-12T12:58:11;13.40;87.40
64062;DHT22;50308;47.438;-1.528;2023-03-12T13:00:47;13.40;87.00
64062;DHT22;50308;47.438;-1.528;2023-03-12T13:03:15;13.40;87.50
64062;DHT22;50308;47.438;-1.528;2023-03-12T13:08:30;13.40;87.00
64062;DHT22;50308;47.438;-1.528;2023-03-12T13:10:55;13.40;86.90
64062;DHT22;50308;47.438;-1.528;2023-03-12T13:13:22;13.40;87.40
64062;DHT22;50308;47.438;-1.528;2023-03-12T13:15:48;13.40;87.30
64062;DHT22;50308;47.438;-1.528;2023-03-12T13:18:21;13.40;88.30
64062;DHT22;50308;47.438;-1.528;2023-03-12T13:25:56;13.50;87.40
64062;DHT22;50308;47.438;-1.528;2023-03-12T13:30:59;13.50;87.30
64062;DHT22;50308;47.438;-1.528;2023-03-12T13:33:35;13.50;87.10
64062;DHT22;50308;47.438;-1.528;2023-03-12T13:36:36;13.50;87.00
64062;DHT22;50308;47.438;-1.528;2023-03-12T13:38:58;13.40;87.00
64062;DHT22;50308;47.438;-1.528;2023-03-12T13:41:35;13.40;87.00
64062;DHT22;50308;47.438;-1.528;2023-03-12T13:44:21;13.40;87.20
64062;DHT22;50308;47.438;-1.528;2023-03-12T13:46:46;13.40;86.80
64062;DHT22;50308;47.438;-1.528;2023-03-12T13:49:12;13.50;87.60
64062;DHT22;50308;47.438;-1.528;2023-03-12T13:51:42;13.50;87.00
64062;DHT22;50308;47.438;-1.528;2023-03-12T13:54:16;13.40;87.70
64062;DHT22;50308;47.438;-1.528;2023-03-12T13:56:52;13.40;87.00
64062;DHT22;50308;47.438;-1.528;2023-03-12T13:59:19;13.40;86.70
64062;DHT22;50308;47.438;-1.528;2023-03-12T14:01:48;13.40;87.00
64062;DHT22;50308;47.438;-1.528;2023-03-12T14:04:22;13.40;87.30
64062;DHT22;50308;47.438;-1.528;2023-03-12T14:12:48;13.40;87.30
64062;DHT22;50308;47.438;-1.528;2023-03-12T14:17:51;13.40;86.70
64062;DHT22;50308;47.438;-1.528;2023-03-12T14:20:19;13.40;87.50
64062;DHT22;50308;47.438;-1.528;2023-03-12T14:22:49;13.40;86.90
64062;DHT22;50308;47.438;-1.528;2023-03-12T14:25:16;13.50;87.00
64062;DHT22;50308;47.438;-1.528;2023-03-12T14:27:45;13.50;87.60
64062;DHT22;50308;47.438;-1.528;2023-03-12T14:30:15;13.50;86.80
64062;DHT22;50308;47.438;-1.528;2023-03-12T14:32:42;13.50;87.00
64062;DHT22;50308;47.438;-1.528;2023-03-12T14:37:43;13.50;87.20
64062;DHT22;50308;47.438;-1.528;2023-03-12T14:40:21;13.40;86.70
64062;DHT22;50308;47.438;-1.528;2023-03-12T14:42:47;13.50;87.00
64062;DHT22;50308;47.438;-1.528;2023-03-12T14:45:15;13.40;86.70
64062;DHT22;50308;47.438;-1.528;2023-03-12T14:47:41;13.50;87.50
64062;DHT22;50308;47.438;-1.528;2023-03-12T14:52:42;13.50;86.80
64062;DHT22;50308;47.438;-1.528;2023-03-12T14:55:11;13.50;87.00
64062;DHT22;50308;47.438;-1.528;2023-03-12T14:57:36;13.50;87.00
64062;DHT22;50308;47.438;-1.528;2023-03-12T15:00:02;13.40;87.00
64062;DHT22;50308;47.438;-1.528;2023-03-12T15:02:29;13.50;87.00
64062;DHT22;50308;47.438;-1.528;2023-03-12T15:04:56;13.50;87.00
64062;DHT22;50308;47.438;-1.528;2023-03-12T15:07:29;13.50;87.10
64062;DHT22;50308;47.438;-1.528;2023-03-12T15:09:55;13.50;87.00
64062;DHT22;50308;47.438;-1.528;2023-03-12T15:12:25;13.50;86.80
64062;DHT22;50308;47.438;-1.528;2023-03-12T15:14:52;13.50;87.00
64062;DHT22;50308;47.438;-1.528;2023-03-12T15:17:19;13.40;87.20
64062;DHT22;50308;47.438;-1.528;2023-03-12T15:19:46;13.50;86.90
64062;DHT22;50308;47.438;-1.528;2023-03-12T15:22:17;13.50;87.00
64062;DHT22;50308;47.438;-1.528;2023-03-12T15:24:45;13.50;87.10
64062;DHT22;50308;47.438;-1.528;2023-03-12T15:27:21;13.50;87.10
64062;DHT22;50308;47.438;-1.528;2023-03-12T15:29:47;13.40;86.90
64062;DHT22;50308;47.438;-1.528;2023-03-12T15:32:13;13.50;87.20
64062;DHT22;50308;47.438;-1.528;2023-03-12T15:34:39;13.50;87.00
64062;DHT22;50308;47.438;-1.528;2023-03-12T15:39:53;13.50;86.80
64062;DHT22;50308;47.438;-1.528;2023-03-12T15:42:20;13.50;87.00
64062;DHT22;50308;47.438;-1.528;2023-03-12T15:44:48;13.50;87.00
64062;DHT22;50308;47.438;-1.528;2023-03-12T15:47:17;13.50;86.90
64062;DHT22;50308;47.438;-1.528;2023-03-12T15:49:43;13.50;87.20
64062;DHT22;50308;47.438;-1.528;2023-03-12T15:57:30;13.50;87.00
64062;DHT22;50308;47.438;-1.528;2023-03-12T16:00:07;13.50;87.10
64062;DHT22;50308;47.438;-1.528;2023-03-12T16:02:38;13.50;87.10
64062;DHT22;50308;47.438;-1.528;2023-03-12T16:05:03;13.50;88.40
64062;DHT22;50308;47.438;-1.528;2023-03-12T16:07:29;13.50;87.20
64062;DHT22;50308;47.438;-1.528;2023-03-12T16:09:55;13.50;87.70
64062;DHT22;50308;47.438;-1.528;2023-03-12T16:12:20;13.50;87.40
64062;DHT22;50308;47.438;-1.528;2023-03-12T16:14:46;13.50;87.00
64062;DHT22;50308;47.438;-1.528;2023-03-12T16:17:12;13.50;87.10
64062;DHT22;50308;47.438;-1.528;2023-03-12T16:19:38;13.50;87.20
64062;DHT22;50308;47.438;-1.528;2023-03-12T16:22:04;13.50;87.30
64062;DHT22;50308;47.438;-1.528;2023-03-12T16:24:29;13.50;87.50
64062;DHT22;50308;47.438;-1.528;2023-03-12T16:26:55;13.50;87.10
64062;DHT22;50308;47.438;-1.528;2023-03-12T16:29:22;13.60;86.90
64062;DHT22;50308;47.438;-1.528;2023-03-12T16:31:53;13.50;87.00
64062;DHT22;50308;47.438;-1.528;2023-03-12T16:34:19;13.50;87.20
64062;DHT22;50308;47.438;-1.528;2023-03-12T16:36:45;13.60;87.20
64062;DHT22;50308;47.438;-1.528;2023-03-12T16:39:10;13.60;87.10
64062;DHT22;50308;47.438;-1.528;2023-03-12T16:41:36;13.50;87.10
64062;DHT22;50308;47.438;-1.528;2023-03-12T16:44:01;13.50;87.20
64062;DHT22;50308;47.438;-1.528;2023-03-12T16:46:29;13.50;87.30
64062;DHT22;50308;47.438;-1.528;2023-03-12T16:48:56;13.60;87.20
64062;DHT22;50308;47.438;-1.528;2023-03-12T16:51:22;13.60;87.40
64062;DHT22;50308;47.438;-1.528;2023-03-12T16:53:48;13.60;87.60
64062;DHT22;50308;47.438;-1.528;2023-03-12T16:56:17;13.60;88.00
64062;DHT22;50308;47.438;-1.528;2023-03-12T16:58:44;13.60;87.90
64062;DHT22;50308;47.438;-1.528;2023-03-12T17:01:10;13.60;87.50
64062;DHT22;50308;47.438;-1.528;2023-03-12T17:03:37;13.60;87.50
64062;DHT22;50308;47.438;-1.528;2023-03-12T17:06:03;13.60;88.20
64062;DHT22;50308;47.438;-1.528;2023-03-12T17:08:29;13.60;88.00
64062;DHT22;50308;47.438;-1.528;2023-03-12T17:10:55;13.60;87.70
64062;DHT22;50308;47.438;-1.528;2023-03-12T17:13:22;13.60;87.70
64062;DHT22;50308;47.438;-1.528;2023-03-12T17:15:48;13.60;88.40
64062;DHT22;50308;47.438;-1.528;2023-03-12T17:18:13;13.60;88.50
64062;DHT22;50308;47.438;-1.528;2023-03-12T17:20:39;13.60;88.70
64062;DHT22;50308;47.438;-1.528;2023-03-12T17:23:06;13.60;89.60
64062;DHT22;50308;47.438;-1.528;2023-03-12T17:25:33;13.60;89.20
64062;DHT22;50308;47.438;-1.528;2023-03-12T17:27:59;13.60;89.30
64062;DHT22;50308;47.438;-1.528;2023-03-12T17:30:25;13.70;90.10
64062;DHT22;50308;47.438;-1.528;2023-03-12T17:32:51;13.70;90.40
64062;DHT22;50308;47.438;-1.528;2023-03-12T17:35:17;13.70;89.50
64062;DHT22;50308;47.438;-1.528;2023-03-12T17:37:43;13.70;90.40
64062;DHT22;50308;47.438;-1.528;2023-03-12T17:40:09;13.70;90.80
64062;DHT22;50308;47.438;-1.528;2023-03-12T17:42:35;13.70;90.20
64062;DHT22;50308;47.438;-1.528;2023-03-12T17:45:02;13.70;90.00
64062;DHT22;50308;47.438;-1.528;2023-03-12T17:47:28;13.70;90.70
64062;DHT22;50308;47.438;-1.528;2023-03-12T17:49:53;13.70;90.40
64062;DHT22;50308;47.438;-1.528;2023-03-12T17:52:19;13.70;89.10
64062;DHT22;50308;47.438;-1.528;2023-03-12T17:54:44;13.70;90.90
64062;DHT22;50308;47.438;-1.528;2023-03-12T17:57:10;13.70;90.30
64062;DHT22;50308;47.438;-1.528;2023-03-12T17:59:35;13.70;91.00
64062;DHT22;50308;47.438;-1.528;2023-03-12T18:02:01;13.70;90.80
64062;DHT22;50308;47.438;-1.528;2023-03-12T18:04:27;13.70;90.80
64062;DHT22;50308;47.438;-1.528;2023-03-12T18:06:52;13.70;90.90
64062;DHT22;50308;47.438;-1.528;2023-03-12T18:09:18;13.70;90.40